sensor_id;sensor_type;location;lat;lon;timestamp;pressure;altitude;pressure_sealevel;temperature;humidity
42289;BME280;30230;47.520;19.016;2023-02-28T00:00:22;100110.75;;;-0.08;63.20
42289;BME280;30230;47.520;19.016;2023-02-28T00:02:22;100106.50;;;-0.11;64.92
42289;BME280;30230;47.520;19.016;2023-02-28T00:04:23;100115.34;;;-0.10;64.21
42289;BME280;30230;47.520;19.016;2023-02-28T00:06:24;100119.88;;;-0.12;63.80
42289;BME280;30230;47.520;19.016;2023-02-28T00:08:25;100083.47;;;-0.34;63.40
42289;BME280;30230;47.520;19.016;2023-02-28T00:10:27;100112.38;;;-0.18;63.42
42289;BME280;30230;47.520;19.016;2023-02-28T00:12:28;100115.75;;;-0.16;63.55
42289;BME280;30230;47.520;19.016;2023-02-28T00:14:30;100115.75;;;-0.16;63.77
42289;BME280;30230;47.520;19.016;2023-02-28T00:16:30;100122.41;;;-0.11;63.13
42289;BME280;30230;47.520;19.016;2023-02-28T00:18:31;100121.75;;;-0.02;62.78
42289;BME280;30230;47.520;19.016;2023-02-28T00:20:31;100121.41;;;0.03;62.05
42289;BME280;30230;47.520;19.016;2023-02-28T00:22:32;100128.41;;;0.04;62.61
42289;BME280;30230;47.520;19.016;2023-02-28T00:24:32;100123.19;;;-0.09;62.26
42289;BME280;30230;47.520;19.016;2023-02-28T00:26:32;100130.09;;;0.05;61.98
42289;BME280;30230;47.520;19.016;2023-02-28T00:28:33;100132.72;;;-0.06;61.88
42289;BME280;30230;47.520;19.016;2023-02-28T00:30:33;100106.63;;;-0.12;61.41
42289;BME280;30230;47.520;19.016;2023-02-28T00:32:34;100133.66;;;-0.07;61.66
42289;BME280;30230;47.520;19.016;2023-02-28T00:34:35;100142.59;;;-0.08;61.90
42289;BME280;30230;47.520;19.016;2023-02-28T00:36:37;100134.63;;;-0.08;62.71
42289;BME280;30230;47.520;19.016;2023-02-28T00:38:39;100136.97;;;-0.04;62.83
42289;BME280;30230;47.520;19.016;2023-02-28T00:40:39;100138.97;;;-0.07;62.91
42289;BME280;30230;47.520;19.016;2023-02-28T00:42:43;100138.25;;;-0.09;63.05
42289;BME280;30230;47.520;19.016;2023-02-28T00:44:43;100124.56;;;-0.16;63.39
42289;BME280;30230;47.520;19.016;2023-02-28T00:46:44;100144.28;;;-0.07;63.28
42289;BME280;30230;47.520;19.016;2023-02-28T00:48:44;100129.03;;;-0.16;62.33
42289;BME280;30230;47.520;19.016;2023-02-28T00:50:48;100144.28;;;-0.07;63.26
42289;BME280;30230;47.520;19.016;2023-02-28T00:52:49;100143.13;;;-0.03;63.20
42289;BME280;30230;47.520;19.016;2023-02-28T00:54:50;100146.41;;;0.01;63.19
42289;BME280;30230;47.520;19.016;2023-02-28T00:56:50;100143.38;;;0.05;63.16
42289;BME280;30230;47.520;19.016;2023-02-28T00:58:51;100141.97;;;0.12;62.84
42289;BME280;30230;47.520;19.016;2023-02-28T01:00:52;100139.53;;;0.09;62.72
42289;BME280;30230;47.520;19.016;2023-02-28T01:02:52;100141.97;;;0.12;62.47
42289;BME280;30230;47.520;19.016;2023-02-28T01:04:53;100150.66;;;0.14;62.84
42289;BME280;30230;47.520;19.016;2023-02-28T01:06:53;100125.88;;;0.03;62.09
42289;BME280;30230;47.520;19.016;2023-02-28T01:08:54;100136.50;;;0.03;61.36
42289;BME280;30230;47.520;19.016;2023-02-28T01:10:55;100151.75;;;0.12;62.43
42289;BME280;30230;47.520;19.016;2023-02-28T01:12:55;100128.06;;;0.09;62.68
42289;BME280;30230;47.520;19.016;2023-02-28T01:14:55;100141.50;;;0.18;61.79
42289;BME280;30230;47.520;19.016;2023-02-28T01:16:56;100142.19;;;0.09;62.15
42289;BME280;30230;47.520;19.016;2023-02-28T01:18:56;100148.16;;;0.24;62.39
42289;BME280;30230;47.520;19.016;2023-02-28T01:20:57;100146.34;;;0.24;62.20
42289;BME280;30230;47.520;19.016;2023-02-28T01:22:57;100146.34;;;0.24;61.71
42289;BME280;30230;47.520;19.016;2023-02-28T01:24:58;100143.94;;;0.21;63.07
42289;BME280;30230;47.520;19.016;2023-02-28T01:26:58;100145.28;;;0.27;63.51
42289;BME280;30230;47.520;19.016;2023-02-28T01:28:58;100148.66;;;0.29;63.55
42289;BME280;30230;47.520;19.016;2023-02-28T01:30:59;100148.78;;;0.28;63.41
42289;BME280;30230;47.520;19.016;2023-02-28T01:32:59;100152.16;;;0.30;63.48
42289;BME280;30230;47.520;19.016;2023-02-28T01:35:00;100136.69;;;0.23;61.84
42289;BME280;30230;47.520;19.016;2023-02-28T01:37:00;100147.69;;;0.30;62.38
42289;BME280;30230;47.520;19.016;2023-02-28T01:39:01;100146.63;;;0.33;62.28
42289;BME280;30230;47.520;19.016;2023-02-28T01:41:01;100137.19;;;0.29;61.97
42289;BME280;30230;47.520;19.016;2023-02-28T01:43:02;100154.00;;;0.40;62.49
42289;BME280;30230;47.520;19.016;2023-02-28T01:47:20;100139.78;;;0.52;61.98
42289;BME280;30230;47.520;19.016;2023-02-28T01:49:20;100136.50;;;0.49;61.37
42289;BME280;30230;47.520;19.016;2023-02-28T01:51:35;100132.00;;;0.38;60.30
42289;BME280;30230;47.520;19.016;2023-02-28T01:53:44;100139.44;;;0.57;60.69
42289;BME280;30230;47.520;19.016;2023-02-28T01:55:48;100142.31;;;0.54;60.09
42289;BME280;30230;47.520;19.016;2023-02-28T01:57:53;100151.34;;;0.51;59.10
42289;BME280;30230;47.520;19.016;2023-02-28T02:00:01;100115.72;;;0.43;58.96
42289;BME280;30230;47.520;19.016;2023-02-28T02:02:04;100134.34;;;0.54;58.16
42289;BME280;30230;47.520;19.016;2023-02-28T02:04:05;100122.59;;;0.45;58.81
42289;BME280;30230;47.520;19.016;2023-02-28T02:06:05;100137.25;;;0.62;58.05
42289;BME280;30230;47.520;19.016;2023-02-28T02:08:12;100132.88;;;0.61;57.92
42289;BME280;30230;47.520;19.016;2023-02-28T02:10:19;100133.75;;;0.73;57.12
42289;BME280;30230;47.520;19.016;2023-02-28T02:17:17;100134.97;;;0.58;57.23
42289;BME280;30230;47.520;19.016;2023-02-28T02:22:26;100139.53;;;0.67;57.68
42289;BME280;30230;47.520;19.016;2023-02-28T02:36:24;100134.34;;;0.65;56.05
42289;BME280;30230;47.520;19.016;2023-02-28T02:40:42;100132.16;;;0.59;56.72
42289;BME280;30230;47.520;19.016;2023-02-28T02:42:55;100138.47;;;0.58;56.66
42289;BME280;30230;47.520;19.016;2023-02-28T02:45:06;100137.47;;;0.59;56.13
42289;BME280;30230;47.520;19.016;2023-02-28T02:47:17;100138.94;;;0.63;57.44
42289;BME280;30230;47.520;19.016;2023-02-28T02:49:25;100134.34;;;0.65;57.12
42289;BME280;30230;47.520;19.016;2023-02-28T02:51:27;100139.44;;;0.91;56.72
42289;BME280;30230;47.520;19.016;2023-02-28T02:53:35;100136.53;;;0.71;56.23
42289;BME280;30230;47.520;19.016;2023-02-28T02:55:40;100139.03;;;0.62;56.92
42289;BME280;30230;47.520;19.016;2023-02-28T02:57:48;100141.59;;;0.63;57.23
42289;BME280;30230;47.520;19.016;2023-02-28T02:59:51;100135.06;;;0.56;56.52
42289;BME280;30230;47.520;19.016;2023-02-28T03:01:56;100141.63;;;0.86;55.91
42289;BME280;30230;47.520;19.016;2023-02-28T03:04:01;100139.78;;;0.75;57.88
42289;BME280;30230;47.520;19.016;2023-02-28T03:06:03;100132.16;;;0.59;57.50
42289;BME280;30230;47.520;19.016;2023-02-28T03:08:06;100139.44;;;0.68;57.30
42289;BME280;30230;47.520;19.016;2023-02-28T03:10:29;100144.50;;;0.83;56.86
42289;BME280;30230;47.520;19.016;2023-02-28T03:12:49;100143.16;;;0.77;56.71
42289;BME280;30230;47.520;19.016;2023-02-28T03:22:33;100145.25;;;0.85;55.66
42289;BME280;30230;47.520;19.016;2023-02-28T03:24:10;100141.84;;;0.71;55.97
42289;BME280;30230;47.520;19.016;2023-02-28T03:26:21;100150.66;;;0.61;56.79
42289;BME280;30230;47.520;19.016;2023-02-28T03:28:49;100148.47;;;0.55;56.98
42289;BME280;30230;47.520;19.016;2023-02-28T03:33:35;100147.91;;;0.73;56.13
42289;BME280;30230;47.520;19.016;2023-02-28T03:35:34;100145.59;;;0.69;56.60
42289;BME280;30230;47.520;19.016;2023-02-28T03:37:38;100146.22;;;0.72;56.08
42289;BME280;30230;47.520;19.016;2023-02-28T03:39:47;100150.31;;;0.65;56.87
42289;BME280;30230;47.520;19.016;2023-02-28T03:41:59;100134.34;;;0.54;56.62
42289;BME280;30230;47.520;19.016;2023-02-28T03:44:12;100146.78;;;0.54;56.18
42289;BME280;30230;47.520;19.016;2023-02-28T03:46:19;100150.25;;;0.43;56.38
42289;BME280;30230;47.520;19.016;2023-02-28T03:48:24;100153.16;;;0.51;57.19
42289;BME280;30230;47.520;19.016;2023-02-28T03:50:30;100144.59;;;0.47;57.52
42289;BME280;30230;47.520;19.016;2023-02-28T03:52:42;100145.03;;;0.41;57.50
42289;BME280;30230;47.520;19.016;2023-02-28T03:54:48;100153.69;;;0.67;56.19
42289;BME280;30230;47.520;19.016;2023-02-28T03:56:55;100158.75;;;0.70;56.20
42289;BME280;30230;47.520;19.016;2023-02-28T03:59:02;100149.06;;;0.47;57.08
42289;BME280;30230;47.520;19.016;2023-02-28T04:01:12;100143.53;;;0.61;56.67
42289;BME280;30230;47.520;19.016;2023-02-28T04:03:15;100143.66;;;0.60;56.99
42289;BME280;30230;47.520;19.016;2023-02-28T04:05:15;100147.75;;;0.52;56.81
42289;BME280;30230;47.520;19.016;2023-02-28T04:07:17;100130.19;;;0.39;57.26
42289;BME280;30230;47.520;19.016;2023-02-28T04:09:17;100142.53;;;0.51;57.21
42289;BME280;30230;47.520;19.016;2023-02-28T04:13:26;100140.34;;;0.45;57.28
42289;BME280;30230;47.520;19.016;2023-02-28T04:15:26;100139.63;;;0.43;57.62
42289;BME280;30230;47.520;19.016;2023-02-28T04:17:27;100142.44;;;0.64;58.52
42289;BME280;30230;47.520;19.016;2023-02-28T04:19:27;100133.50;;;0.54;57.40
42289;BME280;30230;47.520;19.016;2023-02-28T04:21:29;100127.91;;;0.57;57.45
42289;BME280;30230;47.520;19.016;2023-02-28T04:23:30;100133.50;;;0.54;57.28
42289;BME280;30230;47.520;19.016;2023-02-28T04:25:30;100137.75;;;0.78;56.43
42289;BME280;30230;47.520;19.016;2023-02-28T04:27:31;100136.63;;;0.59;56.08
42289;BME280;30230;47.520;19.016;2023-02-28T04:29:31;100129.00;;;0.43;57.65
42289;BME280;30230;47.520;19.016;2023-02-28T04:31:35;100132.63;;;0.42;58.53
42289;BME280;30230;47.520;19.016;2023-02-28T04:33:35;100110.63;;;0.51;58.12
42289;BME280;30230;47.520;19.016;2023-02-28T04:35:36;100120.19;;;0.42;57.97
42289;BME280;30230;47.520;19.016;2023-02-28T04:37:36;100136.88;;;0.67;57.76
42289;BME280;30230;47.520;19.016;2023-02-28T04:39:37;100111.22;;;0.32;58.05
42289;BME280;30230;47.520;19.016;2023-02-28T04:41:38;100134.78;;;0.37;59.07
42289;BME280;30230;47.520;19.016;2023-02-28T04:43:38;100132.13;;;0.37;59.07
42289;BME280;30230;47.520;19.016;2023-02-28T04:45:39;100137.00;;;0.54;58.65
42289;BME280;30230;47.520;19.016;2023-02-28T04:47:39;100122.50;;;0.58;58.74
42289;BME280;30230;47.520;19.016;2023-02-28T04:49:39;100134.53;;;0.40;59.20
42289;BME280;30230;47.520;19.016;2023-02-28T04:51:42;100131.44;;;0.57;59.08
42289;BME280;30230;47.520;19.016;2023-02-28T04:53:42;100131.44;;;0.57;58.48
42289;BME280;30230;47.520;19.016;2023-02-28T04:55:43;100119.22;;;0.43;59.47
42289;BME280;30230;47.520;19.016;2023-02-28T04:57:43;100101.78;;;0.28;59.69
42289;BME280;30230;47.520;19.016;2023-02-28T04:59:44;100133.06;;;0.36;60.34
42289;BME280;30230;47.520;19.016;2023-02-28T05:01:49;100133.06;;;0.36;60.06
42289;BME280;30230;47.520;19.016;2023-02-28T05:03:50;100130.22;;;0.50;59.95
42289;BME280;30230;47.520;19.016;2023-02-28T05:05:51;100127.19;;;0.43;59.74
42289;BME280;30230;47.520;19.016;2023-02-28T05:07:51;100126.72;;;0.61;59.76
42289;BME280;30230;47.520;19.016;2023-02-28T05:09:53;100135.41;;;0.51;59.32
42289;BME280;30230;47.520;19.016;2023-02-28T05:11:54;100120.78;;;0.46;59.57
42289;BME280;30230;47.520;19.016;2023-02-28T05:13:55;100130.41;;;0.36;59.90
42289;BME280;30230;47.520;19.016;2023-02-28T05:15:56;100125.59;;;0.41;59.50
42289;BME280;30230;47.520;19.016;2023-02-28T05:17:56;100133.63;;;0.52;59.96
42289;BME280;30230;47.520;19.016;2023-02-28T05:19:57;100118.00;;;0.36;59.69
42289;BME280;30230;47.520;19.016;2023-02-28T05:21:57;100138.03;;;0.40;59.99
42289;BME280;30230;47.520;19.016;2023-02-28T05:24:00;100144.59;;;0.36;59.95
42289;BME280;30230;47.520;19.016;2023-02-28T05:26:01;100146.91;;;0.52;59.82
42289;BME280;30230;47.520;19.016;2023-02-28T05:28:02;100150.63;;;0.49;60.00
42289;BME280;30230;47.520;19.016;2023-02-28T05:30:02;100134.78;;;0.37;59.74
42289;BME280;30230;47.520;19.016;2023-02-28T05:32:04;100146.97;;;0.39;60.90
42289;BME280;30230;47.520;19.016;2023-02-28T05:34:05;100128.97;;;0.32;60.02
42289;BME280;30230;47.520;19.016;2023-02-28T05:36:06;100146.75;;;0.31;59.86
42289;BME280;30230;47.520;19.016;2023-02-28T05:38:06;100145.16;;;0.29;59.91
42289;BME280;30230;47.520;19.016;2023-02-28T05:40:09;100160.78;;;0.56;59.07
42289;BME280;30230;47.520;19.016;2023-02-28T05:42:13;100152.31;;;0.50;59.67
42289;BME280;30230;47.520;19.016;2023-02-28T05:44:13;100162.84;;;0.52;60.29
42289;BME280;30230;47.520;19.016;2023-02-28T05:46:14;100155.13;;;0.60;60.04
42289;BME280;30230;47.520;19.016;2023-02-28T05:48:15;100157.63;;;0.50;60.36
42289;BME280;30230;47.520;19.016;2023-02-28T05:50:15;100153.00;;;0.41;59.67
42289;BME280;30230;47.520;19.016;2023-02-28T05:52:17;100165.03;;;0.58;59.02
42289;BME280;30230;47.520;19.016;2023-02-28T05:54:17;100158.84;;;0.46;60.11
42289;BME280;30230;47.520;19.016;2023-02-28T05:56:17;100172.03;;;0.48;60.13
42289;BME280;30230;47.520;19.016;2023-02-28T05:58:18;100162.38;;;0.47;59.54
42289;BME280;30230;47.520;19.016;2023-02-28T06:00:19;100159.44;;;0.50;59.54
42289;BME280;30230;47.520;19.016;2023-02-28T06:02:19;100171.69;;;0.52;59.33
42289;BME280;30230;47.520;19.016;2023-02-28T06:04:20;100168.91;;;0.54;59.17
42289;BME280;30230;47.520;19.016;2023-02-28T06:06:21;100157.50;;;0.41;58.85
42289;BME280;30230;47.520;19.016;2023-02-28T06:08:21;100174.44;;;0.51;58.69
42289;BME280;30230;47.520;19.016;2023-02-28T06:10:22;100176.59;;;0.46;59.58
42289;BME280;30230;47.520;19.016;2023-02-28T06:12:22;100178.81;;;0.52;59.36
42289;BME280;30230;47.520;19.016;2023-02-28T06:14:23;100134.41;;;0.30;59.37
42289;BME280;30230;47.520;19.016;2023-02-28T06:16:24;100178.31;;;0.47;57.99
42289;BME280;30230;47.520;19.016;2023-02-28T06:18:24;100169.13;;;0.51;58.59
42289;BME280;30230;47.520;19.016;2023-02-28T06:20:26;100181.00;;;0.58;59.39
42289;BME280;30230;47.520;19.016;2023-02-28T06:24:38;100172.56;;;0.98;60.23
42289;BME280;30230;47.520;19.016;2023-02-28T06:26:38;100190.50;;;1.29;58.04
42289;BME280;30230;47.520;19.016;2023-02-28T06:28:38;100180.06;;;0.93;56.89
42289;BME280;30230;47.520;19.016;2023-02-28T06:30:39;100179.72;;;1.20;55.71
42289;BME280;30230;47.520;19.016;2023-02-28T06:32:39;100177.16;;;1.07;56.34
42289;BME280;30230;47.520;19.016;2023-02-28T06:34:40;100179.69;;;0.86;55.86
42289;BME280;30230;47.520;19.016;2023-02-28T06:36:41;100196.41;;;0.99;56.34
42289;BME280;30230;47.520;19.016;2023-02-28T06:38:42;100188.53;;;0.87;55.95
42289;BME280;30230;47.520;19.016;2023-02-28T06:40:44;100181.41;;;1.21;65.15
42289;BME280;30230;47.520;19.016;2023-02-28T06:42:45;100178.25;;;1.27;58.36
42289;BME280;30230;47.520;19.016;2023-02-28T06:44:45;100182.75;;;1.26;55.08
42289;BME280;30230;47.520;19.016;2023-02-28T06:46:46;100191.31;;;1.19;55.24
42289;BME280;30230;47.520;19.016;2023-02-28T06:48:46;100200.16;;;1.30;54.83
42289;BME280;30230;47.520;19.016;2023-02-28T06:50:47;100199.06;;;1.11;55.76
42289;BME280;30230;47.520;19.016;2023-02-28T06:52:47;100198.81;;;1.02;56.12
42289;BME280;30230;47.520;19.016;2023-02-28T06:54:48;100205.22;;;1.11;56.17
42289;BME280;30230;47.520;19.016;2023-02-28T06:56:59;100194.09;;;1.06;55.16
42289;BME280;30230;47.520;19.016;2023-02-28T06:59:00;100197.75;;;1.05;55.35
42289;BME280;30230;47.520;19.016;2023-02-28T07:01:01;100196.28;;;1.12;55.55
42289;BME280;30230;47.520;19.016;2023-02-28T07:03:02;100192.78;;;1.00;55.74
42289;BME280;30230;47.520;19.016;2023-02-28T07:05:02;100192.06;;;0.98;55.36
42289;BME280;30230;47.520;19.016;2023-02-28T07:07:03;100204.75;;;1.06;55.07
42289;BME280;30230;47.520;19.016;2023-02-28T07:09:03;100196.75;;;1.06;54.46
42289;BME280;30230;47.520;19.016;2023-02-28T07:11:04;100210.56;;;1.22;55.93
42289;BME280;30230;47.520;19.016;2023-02-28T07:13:06;100205.59;;;1.18;55.17
42289;BME280;30230;47.520;19.016;2023-02-28T07:15:07;100200.88;;;0.99;55.55
42289;BME280;30230;47.520;19.016;2023-02-28T07:17:09;100211.03;;;1.05;55.57
42289;BME280;30230;47.520;19.016;2023-02-28T07:19:10;100215.38;;;1.28;55.36
42289;BME280;30230;47.520;19.016;2023-02-28T07:21:11;100223.84;;;1.22;55.15
42289;BME280;30230;47.520;19.016;2023-02-28T07:23:11;100222.16;;;1.21;54.54
42289;BME280;30230;47.520;19.016;2023-02-28T07:25:15;100216.84;;;1.21;54.74
42289;BME280;30230;47.520;19.016;2023-02-28T07:27:15;100216.84;;;1.44;55.40
42289;BME280;30230;47.520;19.016;2023-02-28T07:29:23;100219.75;;;1.29;55.10
42289;BME280;30230;47.520;19.016;2023-02-28T07:31:24;100217.47;;;1.25;54.91
42289;BME280;30230;47.520;19.016;2023-02-28T07:33:24;100220.84;;;1.27;54.97
42289;BME280;30230;47.520;19.016;2023-02-28T07:35:24;100218.78;;;1.19;55.24
42289;BME280;30230;47.520;19.016;2023-02-28T07:37:25;100220.94;;;0.92;54.95
42289;BME280;30230;47.520;19.016;2023-02-28T07:39:25;100221.31;;;1.10;55.69
42289;BME280;30230;47.520;19.016;2023-02-28T07:41:26;100223.63;;;1.14;55.25
42289;BME280;30230;47.520;19.016;2023-02-28T07:43:27;100227.63;;;1.09;55.01
42289;BME280;30230;47.520;19.016;2023-02-28T07:45:28;100231.25;;;1.41;54.65
42289;BME280;30230;47.520;19.016;2023-02-28T07:47:29;100236.59;;;1.30;54.58
42289;BME280;30230;47.520;19.016;2023-02-28T07:49:30;100221.09;;;1.35;55.06
42289;BME280;30230;47.520;19.016;2023-02-28T07:51:31;100223.13;;;1.43;55.35
42289;BME280;30230;47.520;19.016;2023-02-28T07:53:32;100225.00;;;1.86;53.19
42289;BME280;30230;47.520;19.016;2023-02-28T07:55:32;100224.19;;;1.74;54.42
42289;BME280;30230;47.520;19.016;2023-02-28T07:57:32;100223.13;;;1.76;54.05
42289;BME280;30230;47.520;19.016;2023-02-28T07:59:33;100225.75;;;1.88;53.50
42289;BME280;30230;47.520;19.016;2023-02-28T08:01:33;100225.00;;;1.86;53.05
42289;BME280;30230;47.520;19.016;2023-02-28T08:03:34;100220.84;;;2.04;52.92
42289;BME280;30230;47.520;19.016;2023-02-28T08:05:38;100221.97;;;2.33;51.33
42289;BME280;30230;47.520;19.016;2023-02-28T08:07:40;100214.91;;;2.32;51.39
42289;BME280;30230;47.520;19.016;2023-02-28T08:09:40;100217.38;;;2.56;51.99
42289;BME280;30230;47.520;19.016;2023-02-28T08:11:41;100208.13;;;2.81;51.21
42289;BME280;30230;47.520;19.016;2023-02-28T08:13:41;100211.53;;;3.14;49.32
42289;BME280;30230;47.520;19.016;2023-02-28T08:15:43;100208.81;;;3.35;49.06
42289;BME280;30230;47.520;19.016;2023-02-28T08:17:45;100206.84;;;3.27;48.37
42289;BME280;30230;47.520;19.016;2023-02-28T08:19:46;100215.19;;;3.44;48.08
42289;BME280;30230;47.520;19.016;2023-02-28T08:21:46;100216.25;;;3.62;47.10
42289;BME280;30230;47.520;19.016;2023-02-28T08:23:48;100217.31;;;3.50;47.86
42289;BME280;30230;47.520;19.016;2023-02-28T08:25:56;100212.97;;;3.18;47.93
42289;BME280;30230;47.520;19.016;2023-02-28T08:27:56;100212.88;;;2.99;48.81
42289;BME280;30230;47.520;19.016;2023-02-28T08:29:57;100214.00;;;2.96;49.15
42289;BME280;30230;47.520;19.016;2023-02-28T08:31:57;100213.16;;;3.26;47.87
42289;BME280;30230;47.520;19.016;2023-02-28T08:33:58;100210.31;;;3.18;46.43
42289;BME280;30230;47.520;19.016;2023-02-28T08:35:59;100213.91;;;3.07;48.54
42289;BME280;30230;47.520;19.016;2023-02-28T08:37:59;100203.38;;;3.06;49.54
42289;BME280;30230;47.520;19.016;2023-02-28T08:40:00;100211.28;;;3.17;49.67
42289;BME280;30230;47.520;19.016;2023-02-28T08:42:01;100206.09;;;3.56;59.01
42289;BME280;30230;47.520;19.016;2023-02-28T08:44:01;100203.97;;;4.09;49.27
42289;BME280;30230;47.520;19.016;2023-02-28T08:46:02;100205.81;;;4.09;46.26
42289;BME280;30230;47.520;19.016;2023-02-28T08:48:03;100206.22;;;3.95;47.76
42289;BME280;30230;47.520;19.016;2023-02-28T08:50:05;100215.31;;;3.82;47.35
42289;BME280;30230;47.520;19.016;2023-02-28T08:52:05;100212.06;;;3.69;47.18
42289;BME280;30230;47.520;19.016;2023-02-28T08:54:06;100215.41;;;3.71;48.20
42289;BME280;30230;47.520;19.016;2023-02-28T08:56:16;100210.94;;;3.81;47.62
42289;BME280;30230;47.520;19.016;2023-02-28T08:58:17;100215.72;;;3.68;48.14
42289;BME280;30230;47.520;19.016;2023-02-28T09:00:18;100199.16;;;3.84;48.36
42289;BME280;30230;47.520;19.016;2023-02-28T09:02:18;100203.41;;;4.06;47.04
42289;BME280;30230;47.520;19.016;2023-02-28T09:04:19;100211.78;;;3.82;48.10
42289;BME280;30230;47.520;19.016;2023-02-28T09:06:22;100204.81;;;4.10;48.77
42289;BME280;30230;47.520;19.016;2023-02-28T09:08:29;100209.44;;;4.08;47.69
42289;BME280;30230;47.520;19.016;2023-02-28T09:10:34;100215.22;;;3.94;47.71
42289;BME280;30230;47.520;19.016;2023-02-28T09:12:34;100190.09;;;3.65;48.49
42289;BME280;30230;47.520;19.016;2023-02-28T09:14:35;100203.78;;;3.72;50.10
42289;BME280;30230;47.520;19.016;2023-02-28T09:16:36;100212.38;;;3.85;48.93
42289;BME280;30230;47.520;19.016;2023-02-28T09:18:37;100207.88;;;3.86;48.16
42289;BME280;30230;47.520;19.016;2023-02-28T09:20:39;100205.38;;;4.04;49.78
42289;BME280;30230;47.520;19.016;2023-02-28T09:22:39;100204.69;;;4.21;49.38
42289;BME280;30230;47.520;19.016;2023-02-28T09:24:40;100211.69;;;4.12;49.63
42289;BME280;30230;47.520;19.016;2023-02-28T09:26:40;100215.66;;;4.08;49.40
42289;BME280;30230;47.520;19.016;2023-02-28T09:28:41;100210.72;;;4.04;49.92
42289;BME280;30230;47.520;19.016;2023-02-28T09:30:44;100220.69;;;4.02;49.56
42289;BME280;30230;47.520;19.016;2023-02-28T09:32:44;100217.13;;;3.82;48.32
42289;BME280;30230;47.520;19.016;2023-02-28T09:34:52;100220.91;;;3.70;49.63
42289;BME280;30230;47.520;19.016;2023-02-28T09:36:52;100211.13;;;3.89;47.77
42289;BME280;30230;47.520;19.016;2023-02-28T09:38:55;100230.09;;;3.86;48.98
42289;BME280;30230;47.520;19.016;2023-02-28T09:40:58;100217.63;;;4.16;47.16
42289;BME280;30230;47.520;19.016;2023-02-28T09:42:59;100231.56;;;4.10;49.61
42289;BME280;30230;47.520;19.016;2023-02-28T09:45:02;100227.75;;;4.22;49.27
42289;BME280;30230;47.520;19.016;2023-02-28T09:49:23;100215.41;;;4.40;48.39
42289;BME280;30230;47.520;19.016;2023-02-28T09:53:44;100217.22;;;4.21;46.83
42289;BME280;30230;47.520;19.016;2023-02-28T09:55:49;100218.16;;;4.00;47.55
42289;BME280;30230;47.520;19.016;2023-02-28T09:57:51;100198.13;;;3.75;47.55
42289;BME280;30230;47.520;19.016;2023-02-28T10:06:49;100202.56;;;4.44;47.78
42289;BME280;30230;47.520;19.016;2023-02-28T10:09:08;100218.75;;;4.42;47.60
42289;BME280;30230;47.520;19.016;2023-02-28T10:11:16;100212.28;;;4.55;46.38
42289;BME280;30230;47.520;19.016;2023-02-28T10:18:05;100107.47;;;3.93;47.29
42289;BME280;30230;47.520;19.016;2023-02-28T10:20:19;100151.22;;;4.31;46.37
42289;BME280;30230;47.520;19.016;2023-02-28T10:24:30;100206.47;;;4.79;47.34
42289;BME280;30230;47.520;19.016;2023-02-28T10:26:45;100137.97;;;4.29;46.01
42289;BME280;30230;47.520;19.016;2023-02-28T10:28:51;100208.56;;;4.85;46.74
42289;BME280;30230;47.520;19.016;2023-02-28T10:30:53;100146.53;;;4.42;46.96
42289;BME280;30230;47.520;19.016;2023-02-28T10:32:54;100200.06;;;5.09;47.34
42289;BME280;30230;47.520;19.016;2023-02-28T10:35:14;100199.66;;;5.13;47.86
42289;BME280;30230;47.520;19.016;2023-02-28T10:37:14;100190.88;;;5.21;45.95
42289;BME280;30230;47.520;19.016;2023-02-28T10:39:43;100193.97;;;5.16;46.32
42289;BME280;30230;47.520;19.016;2023-02-28T10:41:45;100191.97;;;5.28;46.16
42289;BME280;30230;47.520;19.016;2023-02-28T10:43:46;100191.41;;;5.34;46.08
42289;BME280;30230;47.520;19.016;2023-02-28T10:45:59;100191.84;;;5.20;46.78
42289;BME280;30230;47.520;19.016;2023-02-28T10:48:04;100180.19;;;5.11;45.58
42289;BME280;30230;47.520;19.016;2023-02-28T10:50:05;100177.63;;;5.19;45.90
42289;BME280;30230;47.520;19.016;2023-02-28T10:52:09;100181.50;;;5.35;46.68
42289;BME280;30230;47.520;19.016;2023-02-28T10:54:18;100173.88;;;5.03;46.54
42289;BME280;30230;47.520;19.016;2023-02-28T10:56:21;100175.81;;;5.47;46.05
42289;BME280;30230;47.520;19.016;2023-02-28T10:58:24;100176.41;;;5.41;46.67
42289;BME280;30230;47.520;19.016;2023-02-28T11:00:32;100176.28;;;5.88;45.45
42289;BME280;30230;47.520;19.016;2023-02-28T11:02:35;100174.13;;;5.46;46.05
42289;BME280;30230;47.520;19.016;2023-02-28T11:04:37;100170.53;;;5.38;47.31
42289;BME280;30230;47.520;19.016;2023-02-28T11:06:40;100172.53;;;5.26;47.53
42289;BME280;30230;47.520;19.016;2023-02-28T11:08:45;100164.91;;;5.21;45.93
42289;BME280;30230;47.520;19.016;2023-02-28T11:10:57;100180.16;;;5.21;47.63
42289;BME280;30230;47.520;19.016;2023-02-28T11:12:58;100176.34;;;5.23;46.96
42289;BME280;30230;47.520;19.016;2023-02-28T11:15:03;100175.63;;;5.21;46.63
42289;BME280;30230;47.520;19.016;2023-02-28T11:17:14;100172.72;;;5.42;47.06
42289;BME280;30230;47.520;19.016;2023-02-28T11:19:45;100166.38;;;5.71;47.64
42289;BME280;30230;47.520;19.016;2023-02-28T11:21:56;100167.38;;;5.70;47.18
42289;BME280;30230;47.520;19.016;2023-02-28T11:24:29;100170.78;;;5.90;47.14
42289;BME280;30230;47.520;19.016;2023-02-28T11:26:44;100160.47;;;5.95;47.11
42289;BME280;30230;47.520;19.016;2023-02-28T11:28:47;100154.16;;;5.86;46.52
42289;BME280;30230;47.520;19.016;2023-02-28T11:37:31;100156.47;;;5.99;45.83
42289;BME280;30230;47.520;19.016;2023-02-28T11:39:32;100164.41;;;5.91;45.46
42289;BME280;30230;47.520;19.016;2023-02-28T11:46:27;100164.31;;;5.83;48.02
42289;BME280;30230;47.520;19.016;2023-02-28T11:48:46;100161.63;;;5.83;47.30
42289;BME280;30230;47.520;19.016;2023-02-28T11:55:35;100151.28;;;5.70;47.94